sensor_id;sensor_type;location;lat;lon;timestamp;P1;durP1;ratioP1;P2;durP2;ratioP2
31061;SDS011;17724;53.546;9.974;2022-09-24T00:01:25;9.83;;;5.33;;
31061;SDS011;17724;53.546;9.974;2022-09-24T00:05:28;11.10;;;5.90;;
31061;SDS011;17724;53.546;9.974;2022-09-24T00:09:28;9.53;;;6.00;;
31061;SDS011;17724;53.546;9.974;2022-09-24T00:13:29;9.70;;;5.30;;
31061;SDS011;17724;53.546;9.974;2022-09-24T00:17:29;9.67;;;4.77;;
31061;SDS011;17724;53.546;9.974;2022-09-24T00:21:31;9.20;;;5.20;;
31061;SDS011;17724;53.546;9.974;2022-09-24T00:25:38;10.17;;;5.47;;
31061;SDS011;17724;53.546;9.974;2022-09-24T00:29:58;9.80;;;5.63;;
31061;SDS011;17724;53.546;9.974;2022-09-24T00:33:58;10.70;;;5.97;;
31061;SDS011;17724;53.546;9.974;2022-09-24T00:37:59;9.73;;;5.90;;
31061;SDS011;17724;53.546;9.974;2022-09-24T00:42:00;10.20;;;5.93;;
31061;SDS011;17724;53.546;9.974;2022-09-24T00:50:09;12.70;;;8.47;;
31061;SDS011;17724;53.546;9.974;2022-09-24T00:54:16;12.23;;;9.27;;
31061;SDS011;17724;53.546;9.974;2022-09-24T00:58:21;12.50;;;9.20;;
31061;SDS011;17724;53.546;9.974;2022-09-24T01:02:22;14.00;;;9.57;;
31061;SDS011;17724;53.546;9.974;2022-09-24T01:06:23;13.60;;;9.43;;
31061;SDS011;17724;53.546;9.974;2022-09-24T01:10:35;12.53;;;9.23;;
31061;SDS011;17724;53.546;9.974;2022-09-24T01:14:59;12.27;;;9.77;;
31061;SDS011;17724;53.546;9.974;2022-09-24T01:19:16;12.00;;;9.40;;
31061;SDS011;17724;53.546;9.974;2022-09-24T01:28:16;11.90;;;9.73;;
31061;SDS011;17724;53.546;9.974;2022-09-24T01:32:28;14.13;;;11.17;;
31061;SDS011;17724;53.546;9.974;2022-09-24T01:36:36;16.37;;;11.93;;
31061;SDS011;17724;53.546;9.974;2022-09-24T01:40:39;13.33;;;11.50;;
31061;SDS011;17724;53.546;9.974;2022-09-24T01:44:42;13.70;;;11.23;;
31061;SDS011;17724;53.546;9.974;2022-09-24T01:48:43;14.13;;;9.97;;
31061;SDS011;17724;53.546;9.974;2022-09-24T02:01:13;13.13;;;11.43;;
31061;SDS011;17724;53.546;9.974;2022-09-24T02:05:21;15.60;;;11.00;;
31061;SDS011;17724;53.546;9.974;2022-09-24T02:09:29;12.93;;;9.70;;
31061;SDS011;17724;53.546;9.974;2022-09-24T02:13:33;14.57;;;10.77;;
31061;SDS011;17724;53.546;9.974;2022-09-24T02:17:39;15.47;;;12.43;;
31061;SDS011;17724;53.546;9.974;2022-09-24T02:21:43;15.30;;;11.90;;
31061;SDS011;17724;53.546;9.974;2022-09-24T02:25:49;15.37;;;10.90;;
31061;SDS011;17724;53.546;9.974;2022-09-24T02:29:55;17.07;;;11.30;;
31061;SDS011;17724;53.546;9.974;2022-09-24T02:33:58;15.63;;;11.77;;
31061;SDS011;17724;53.546;9.974;2022-09-24T02:38:21;17.47;;;12.60;;
31061;SDS011;17724;53.546;9.974;2022-09-24T02:42:22;14.37;;;11.87;;
31061;SDS011;17724;53.546;9.974;2022-09-24T02:46:23;15.93;;;12.13;;
31061;SDS011;17724;53.546;9.974;2022-09-24T02:50:23;16.23;;;12.63;;
31061;SDS011;17724;53.546;9.974;2022-09-24T02:54:24;15.40;;;13.80;;
31061;SDS011;17724;53.546;9.974;2022-09-24T02:58:24;17.93;;;13.53;;
31061;SDS011;17724;53.546;9.974;2022-09-24T03:02:24;15.80;;;12.67;;
31061;SDS011;17724;53.546;9.974;2022-09-24T03:06:27;18.20;;;13.33;;
31061;SDS011;17724;53.546;9.974;2022-09-24T03:10:28;19.50;;;13.17;;
31061;SDS011;17724;53.546;9.974;2022-09-24T03:14:29;14.40;;;12.47;;
31061;SDS011;17724;53.546;9.974;2022-09-24T03:18:29;15.57;;;11.63;;
31061;SDS011;17724;53.546;9.974;2022-09-24T03:22:29;16.17;;;12.80;;
31061;SDS011;17724;53.546;9.974;2022-09-24T03:26:30;15.13;;;11.93;;
31061;SDS011;17724;53.546;9.974;2022-09-24T03:30:30;18.73;;;12.20;;
31061;SDS011;17724;53.546;9.974;2022-09-24T03:34:49;16.10;;;11.30;;
31061;SDS011;17724;53.546;9.974;2022-09-24T03:38:51;17.10;;;12.17;;
31061;SDS011;17724;53.546;9.974;2022-09-24T03:42:55;17.70;;;13.53;;
31061;SDS011;17724;53.546;9.974;2022-09-24T03:46:55;17.73;;;14.87;;
31061;SDS011;17724;53.546;9.974;2022-09-24T03:50:55;18.43;;;14.23;;
31061;SDS011;17724;53.546;9.974;2022-09-24T03:54:56;16.23;;;13.93;;
31061;SDS011;17724;53.546;9.974;2022-09-24T03:58:56;15.27;;;13.67;;
31061;SDS011;17724;53.546;9.974;2022-09-24T04:02:57;18.57;;;15.10;;
31061;SDS011;17724;53.546;9.974;2022-09-24T04:06:57;19.40;;;15.40;;
31061;SDS011;17724;53.546;9.974;2022-09-24T04:10:58;18.63;;;15.00;;
31061;SDS011;17724;53.546;9.974;2022-09-24T04:14:58;16.50;;;14.13;;
31061;SDS011;17724;53.546;9.974;2022-09-24T04:19:01;16.30;;;10.97;;
31061;SDS011;17724;53.546;9.974;2022-09-24T04:23:02;13.73;;;11.40;;
31061;SDS011;17724;53.546;9.974;2022-09-24T04:27:02;16.40;;;11.63;;
31061;SDS011;17724;53.546;9.974;2022-09-24T04:31:03;14.47;;;11.70;;
31061;SDS011;17724;53.546;9.974;2022-09-24T04:35:04;13.87;;;11.53;;
31061;SDS011;17724;53.546;9.974;2022-09-24T04:39:05;13.90;;;11.20;;
31061;SDS011;17724;53.546;9.974;2022-09-24T04:43:05;15.70;;;11.87;;
31061;SDS011;17724;53.546;9.974;2022-09-24T04:47:06;13.27;;;11.77;;
31061;SDS011;17724;53.546;9.974;2022-09-24T04:51:08;14.50;;;11.97;;
31061;SDS011;17724;53.546;9.974;2022-09-24T04:55:09;12.60;;;10.80;;
31061;SDS011;17724;53.546;9.974;2022-09-24T04:59:10;14.90;;;13.10;;
31061;SDS011;17724;53.546;9.974;2022-09-24T05:03:10;15.23;;;11.60;;
31061;SDS011;17724;53.546;9.974;2022-09-24T05:07:10;18.47;;;13.00;;
31061;SDS011;17724;53.546;9.974;2022-09-24T05:11:11;14.20;;;11.20;;
31061;SDS011;17724;53.546;9.974;2022-09-24T05:15:12;15.37;;;12.13;;
31061;SDS011;17724;53.546;9.974;2022-09-24T05:19:12;16.67;;;12.00;;
31061;SDS011;17724;53.546;9.974;2022-09-24T05:23:12;14.00;;;11.67;;
31061;SDS011;17724;53.546;9.974;2022-09-24T05:27:13;13.20;;;9.70;;
31061;SDS011;17724;53.546;9.974;2022-09-24T05:31:13;12.97;;;11.27;;
31061;SDS011;17724;53.546;9.974;2022-09-24T05:35:14;15.47;;;11.20;;
31061;SDS011;17724;53.546;9.974;2022-09-24T05:39:14;12.20;;;9.43;;
31061;SDS011;17724;53.546;9.974;2022-09-24T05:43:15;14.90;;;11.13;;
31061;SDS011;17724;53.546;9.974;2022-09-24T05:47:18;15.27;;;11.83;;
31061;SDS011;17724;53.546;9.974;2022-09-24T05:51:18;15.83;;;11.60;;
31061;SDS011;17724;53.546;9.974;2022-09-24T05:55:18;18.13;;;12.30;;
31061;SDS011;17724;53.546;9.974;2022-09-24T05:59:19;14.90;;;11.90;;
31061;SDS011;17724;53.546;9.974;2022-09-24T06:03:19;16.47;;;12.87;;
31061;SDS011;17724;53.546;9.974;2022-09-24T06:07:20;19.63;;;15.50;;
31061;SDS011;17724;53.546;9.974;2022-09-24T06:11:20;17.53;;;15.73;;
31061;SDS011;17724;53.546;9.974;2022-09-24T06:15:21;19.17;;;17.17;;
31061;SDS011;17724;53.546;9.974;2022-09-24T06:19:22;23.33;;;18.23;;
31061;SDS011;17724;53.546;9.974;2022-09-24T06:23:22;30.13;;;27.07;;
31061;SDS011;17724;53.546;9.974;2022-09-24T06:27:23;20.63;;;18.50;;
31061;SDS011;17724;53.546;9.974;2022-09-24T06:31:23;27.53;;;19.40;;
31061;SDS011;17724;53.546;9.974;2022-09-24T06:35:23;23.03;;;18.53;;
31061;SDS011;17724;53.546;9.974;2022-09-24T06:39:24;17.13;;;15.30;;
31061;SDS011;17724;53.546;9.974;2022-09-24T06:43:26;18.80;;;16.10;;
31061;SDS011;17724;53.546;9.974;2022-09-24T06:47:27;18.00;;;15.80;;
31061;SDS011;17724;53.546;9.974;2022-09-24T06:51:29;16.80;;;13.97;;
31061;SDS011;17724;53.546;9.974;2022-09-24T06:55:29;21.33;;;19.20;;
31061;SDS011;17724;53.546;9.974;2022-09-24T06:59:29;17.90;;;15.00;;
31061;SDS011;17724;53.546;9.974;2022-09-24T07:03:31;18.63;;;13.80;;
31061;SDS011;17724;53.546;9.974;2022-09-24T07:07:32;21.27;;;15.73;;
31061;SDS011;17724;53.546;9.974;2022-09-24T07:11:33;20.33;;;14.67;;
31061;SDS011;17724;53.546;9.974;2022-09-24T07:15:33;15.10;;;12.40;;
31061;SDS011;17724;53.546;9.974;2022-09-24T07:19:34;18.13;;;12.90;;
31061;SDS011;17724;53.546;9.974;2022-09-24T07:23:34;15.43;;;13.50;;
31061;SDS011;17724;53.546;9.974;2022-09-24T07:27:35;18.27;;;14.57;;
31061;SDS011;17724;53.546;9.974;2022-09-24T07:31:36;20.00;;;15.13;;
31061;SDS011;17724;53.546;9.974;2022-09-24T07:35:37;18.60;;;15.03;;
31061;SDS011;17724;53.546;9.974;2022-09-24T07:39:38;18.30;;;15.60;;
31061;SDS011;17724;53.546;9.974;2022-09-24T07:43:38;20.33;;;17.00;;
31061;SDS011;17724;53.546;9.974;2022-09-24T07:47:39;22.40;;;16.20;;
31061;SDS011;17724;53.546;9.974;2022-09-24T07:51:39;20.90;;;14.90;;
31061;SDS011;17724;53.546;9.974;2022-09-24T07:55:39;21.70;;;16.40;;
31061;SDS011;17724;53.546;9.974;2022-09-24T07:59:40;23.00;;;17.60;;
31061;SDS011;17724;53.546;9.974;2022-09-24T08:03:40;20.60;;;15.80;;
31061;SDS011;17724;53.546;9.974;2022-09-24T08:07:41;19.33;;;16.00;;
31061;SDS011;17724;53.546;9.974;2022-09-24T08:11:42;21.73;;;16.60;;
31061;SDS011;17724;53.546;9.974;2022-09-24T08:15:43;20.30;;;15.03;;
31061;SDS011;17724;53.546;9.974;2022-09-24T08:19:43;20.10;;;14.77;;
31061;SDS011;17724;53.546;9.974;2022-09-24T08:23:45;21.27;;;14.40;;
31061;SDS011;17724;53.546;9.974;2022-09-24T08:27:46;20.30;;;15.80;;
31061;SDS011;17724;53.546;9.974;2022-09-24T08:31:47;20.57;;;16.10;;
31061;SDS011;17724;53.546;9.974;2022-09-24T08:35:48;21.33;;;15.83;;
31061;SDS011;17724;53.546;9.974;2022-09-24T08:39:49;23.00;;;17.97;;
31061;SDS011;17724;53.546;9.974;2022-09-24T08:44:03;25.77;;;17.90;;
31061;SDS011;17724;53.546;9.974;2022-09-24T08:48:11;22.07;;;17.53;;
31061;SDS011;17724;53.546;9.974;2022-09-24T08:52:28;29.07;;;20.00;;
31061;SDS011;17724;53.546;9.974;2022-09-24T08:56:31;24.30;;;18.10;;
31061;SDS011;17724;53.546;9.974;2022-09-24T09:09:47;23.93;;;18.43;;
31061;SDS011;17724;53.546;9.974;2022-09-24T09:13:49;25.67;;;20.20;;
31061;SDS011;17724;53.546;9.974;2022-09-24T09:18:03;24.27;;;18.53;;
31061;SDS011;17724;53.546;9.974;2022-09-24T09:22:13;28.67;;;19.33;;
31061;SDS011;17724;53.546;9.974;2022-09-24T09:26:16;26.93;;;19.60;;
31061;SDS011;17724;53.546;9.974;2022-09-24T09:30:18;26.93;;;20.67;;
31061;SDS011;17724;53.546;9.974;2022-09-24T09:43:12;25.80;;;19.90;;
31061;SDS011;17724;53.546;9.974;2022-09-24T09:51:54;27.57;;;21.40;;
31061;SDS011;17724;53.546;9.974;2022-09-24T09:55:57;26.33;;;19.80;;
31061;SDS011;17724;53.546;9.974;2022-09-24T09:59:59;25.53;;;20.97;;
31061;SDS011;17724;53.546;9.974;2022-09-24T10:04:02;25.43;;;21.20;;
31061;SDS011;17724;53.546;9.974;2022-09-24T10:08:03;27.97;;;22.47;;
31061;SDS011;17724;53.546;9.974;2022-09-24T10:16:13;30.23;;;22.43;;
31061;SDS011;17724;53.546;9.974;2022-09-24T10:20:17;25.93;;;21.63;;
31061;SDS011;17724;53.546;9.974;2022-09-24T10:24:22;27.00;;;21.83;;
31061;SDS011;17724;53.546;9.974;2022-09-24T10:28:25;27.67;;;22.50;;
31061;SDS011;17724;53.546;9.974;2022-09-24T10:32:45;28.70;;;23.17;;
31061;SDS011;17724;53.546;9.974;2022-09-24T10:36:51;30.70;;;22.73;;
31061;SDS011;17724;53.546;9.974;2022-09-24T10:40:56;30.27;;;23.90;;
31061;SDS011;17724;53.546;9.974;2022-09-24T10:44:58;26.63;;;22.10;;
31061;SDS011;17724;53.546;9.974;2022-09-24T10:49:20;28.27;;;24.27;;
31061;SDS011;17724;53.546;9.974;2022-09-24T11:02:26;28.70;;;22.90;;
31061;SDS011;17724;53.546;9.974;2022-09-24T11:16:08;26.70;;;21.87;;
31061;SDS011;17724;53.546;9.974;2022-09-24T11:20:04;28.43;;;24.00;;
31061;SDS011;17724;53.546;9.974;2022-09-24T11:24:37;26.50;;;22.77;;
31061;SDS011;17724;53.546;9.974;2022-09-24T11:28:56;27.80;;;22.90;;
31061;SDS011;17724;53.546;9.974;2022-09-24T11:33:32;27.80;;;22.53;;
31061;SDS011;17724;53.546;9.974;2022-09-24T11:38:03;28.27;;;24.30;;
31061;SDS011;17724;53.546;9.974;2022-09-24T11:42:23;29.80;;;23.27;;
31061;SDS011;17724;53.546;9.974;2022-09-24T11:55:26;27.50;;;22.83;;
31061;SDS011;17724;53.546;9.974;2022-09-24T12:00:19;28.37;;;22.50;;
31061;SDS011;17724;53.546;9.974;2022-09-24T12:04:14;23.80;;;21.03;;
31061;SDS011;17724;53.546;9.974;2022-09-24T12:08:19;29.50;;;24.20;;
31061;SDS011;17724;53.546;9.974;2022-09-24T12:12:30;27.73;;;22.70;;
31061;SDS011;17724;53.546;9.974;2022-09-24T12:16:37;25.13;;;22.03;;
31061;SDS011;17724;53.546;9.974;2022-09-24T12:21:24;29.50;;;22.63;;
31061;SDS011;17724;53.546;9.974;2022-09-24T12:25:10;29.23;;;22.73;;
31061;SDS011;17724;53.546;9.974;2022-09-24T12:42:43;27.33;;;23.20;;
31061;SDS011;17724;53.546;9.974;2022-09-24T12:46:54;28.77;;;23.93;;
31061;SDS011;17724;53.546;9.974;2022-09-24T12:50:57;26.07;;;21.30;;
31061;SDS011;17724;53.546;9.974;2022-09-24T12:55:01;23.83;;;21.20;;
31061;SDS011;17724;53.546;9.974;2022-09-24T12:59:03;25.80;;;23.10;;
31061;SDS011;17724;53.546;9.974;2022-09-24T13:03:05;27.40;;;23.07;;
31061;SDS011;17724;53.546;9.974;2022-09-24T13:16:16;24.53;;;21.77;;
31061;SDS011;17724;53.546;9.974;2022-09-24T13:20:22;24.80;;;21.10;;
31061;SDS011;17724;53.546;9.974;2022-09-24T13:24:28;25.37;;;22.10;;
31061;SDS011;17724;53.546;9.974;2022-09-24T13:37:10;25.50;;;22.40;;
31061;SDS011;17724;53.546;9.974;2022-09-24T13:41:25;25.50;;;21.57;;
31061;SDS011;17724;53.546;9.974;2022-09-24T13:45:38;24.67;;;20.70;;
31061;SDS011;17724;53.546;9.974;2022-09-24T13:49:43;26.13;;;21.43;;
31061;SDS011;17724;53.546;9.974;2022-09-24T13:58:26;25.23;;;22.50;;
31061;SDS011;17724;53.546;9.974;2022-09-24T14:02:27;24.10;;;21.50;;
31061;SDS011;17724;53.546;9.974;2022-09-24T14:06:36;24.40;;;21.80;;
31061;SDS011;17724;53.546;9.974;2022-09-24T14:10:39;26.37;;;22.93;;
31061;SDS011;17724;53.546;9.974;2022-09-24T14:14:44;24.30;;;20.77;;
31061;SDS011;17724;53.546;9.974;2022-09-24T14:18:59;25.77;;;22.13;;
31061;SDS011;17724;53.546;9.974;2022-09-24T14:23:04;24.73;;;20.67;;
31061;SDS011;17724;53.546;9.974;2022-09-24T14:27:06;28.07;;;21.57;;
31061;SDS011;17724;53.546;9.974;2022-09-24T14:31:14;23.17;;;19.90;;
31061;SDS011;17724;53.546;9.974;2022-09-24T14:35:16;25.77;;;21.63;;
31061;SDS011;17724;53.546;9.974;2022-09-24T14:39:20;26.30;;;22.17;;
31061;SDS011;17724;53.546;9.974;2022-09-24T14:43:47;24.97;;;21.70;;
31061;SDS011;17724;53.546;9.974;2022-09-24T14:47:46;23.50;;;20.50;;
31061;SDS011;17724;53.546;9.974;2022-09-24T14:51:54;23.73;;;21.27;;
31061;SDS011;17724;53.546;9.974;2022-09-24T14:55:58;20.77;;;18.13;;
31061;SDS011;17724;53.546;9.974;2022-09-24T14:59:59;23.57;;;18.73;;
31061;SDS011;17724;53.546;9.974;2022-09-24T15:04:01;25.10;;;20.07;;
31061;SDS011;17724;53.546;9.974;2022-09-24T15:12:16;32.87;;;28.93;;
31061;SDS011;17724;53.546;9.974;2022-09-24T15:16:34;24.70;;;22.10;;
31061;SDS011;17724;53.546;9.974;2022-09-24T15:20:35;23.33;;;20.30;;
31061;SDS011;17724;53.546;9.974;2022-09-24T15:24:35;28.00;;;24.80;;
31061;SDS011;17724;53.546;9.974;2022-09-24T15:28:36;25.77;;;22.27;;
31061;SDS011;17724;53.546;9.974;2022-09-24T15:32:36;27.57;;;23.03;;
31061;SDS011;17724;53.546;9.974;2022-09-24T15:36:37;25.03;;;22.53;;
31061;SDS011;17724;53.546;9.974;2022-09-24T15:40:37;26.70;;;21.90;;
31061;SDS011;17724;53.546;9.974;2022-09-24T15:44:39;24.07;;;21.10;;
31061;SDS011;17724;53.546;9.974;2022-09-24T15:48:39;26.90;;;24.07;;
31061;SDS011;17724;53.546;9.974;2022-09-24T15:52:41;24.83;;;21.97;;
31061;SDS011;17724;53.546;9.974;2022-09-24T15:56:45;25.30;;;22.60;;
31061;SDS011;17724;53.546;9.974;2022-09-24T16:00:51;26.93;;;23.87;;
31061;SDS011;17724;53.546;9.974;2022-09-24T16:04:52;24.60;;;21.93;;
31061;SDS011;17724;53.546;9.974;2022-09-24T16:08:52;25.87;;;21.50;;
31061;SDS011;17724;53.546;9.974;2022-09-24T16:12:52;25.47;;;22.37;;
31061;SDS011;17724;53.546;9.974;2022-09-24T16:16:53;22.97;;;20.27;;
31061;SDS011;17724;53.546;9.974;2022-09-24T16:20:54;24.37;;;20.33;;
31061;SDS011;17724;53.546;9.974;2022-09-24T16:24:55;22.90;;;20.23;;
31061;SDS011;17724;53.546;9.974;2022-09-24T16:28:56;21.10;;;18.83;;
31061;SDS011;17724;53.546;9.974;2022-09-24T16:32:56;22.13;;;18.40;;
31061;SDS011;17724;53.546;9.974;2022-09-24T16:36:57;23.00;;;20.20;;
31061;SDS011;17724;53.546;9.974;2022-09-24T16:40:58;50.23;;;45.00;;
31061;SDS011;17724;53.546;9.974;2022-09-24T16:44:59;23.50;;;18.87;;
31061;SDS011;17724;53.546;9.974;2022-09-24T16:48:59;21.60;;;18.80;;
31061;SDS011;17724;53.546;9.974;2022-09-24T16:53:00;23.70;;;20.33;;
31061;SDS011;17724;53.546;9.974;2022-09-24T16:57:00;27.10;;;21.10;;
31061;SDS011;17724;53.546;9.974;2022-09-24T17:01:03;23.63;;;20.70;;
31061;SDS011;17724;53.546;9.974;2022-09-24T17:05:04;29.23;;;23.70;;
31061;SDS011;17724;53.546;9.974;2022-09-24T17:09:05;29.17;;;24.60;;
31061;SDS011;17724;53.546;9.974;2022-09-24T17:13:24;25.67;;;22.97;;
31061;SDS011;17724;53.546;9.974;2022-09-24T17:17:24;28.87;;;22.50;;
31061;SDS011;17724;53.546;9.974;2022-09-24T17:21:25;26.50;;;23.67;;
31061;SDS011;17724;53.546;9.974;2022-09-24T17:25:25;26.10;;;22.83;;
31061;SDS011;17724;53.546;9.974;2022-09-24T17:29:26;26.43;;;22.57;;
31061;SDS011;17724;53.546;9.974;2022-09-24T17:33:29;27.17;;;23.50;;
31061;SDS011;17724;53.546;9.974;2022-09-24T17:37:30;26.37;;;23.50;;
31061;SDS011;17724;53.546;9.974;2022-09-24T17:41:31;26.80;;;23.87;;
31061;SDS011;17724;53.546;9.974;2022-09-24T17:45:33;26.13;;;20.73;;
31061;SDS011;17724;53.546;9.974;2022-09-24T17:49:33;29.83;;;22.20;;
31061;SDS011;17724;53.546;9.974;2022-09-24T17:53:34;23.70;;;21.17;;
31061;SDS011;17724;53.546;9.974;2022-09-24T17:57:36;25.40;;;22.80;;
31061;SDS011;17724;53.546;9.974;2022-09-24T18:01:37;25.77;;;22.97;;
31061;SDS011;17724;53.546;9.974;2022-09-24T18:05:38;27.97;;;24.90;;
31061;SDS011;17724;53.546;9.974;2022-09-24T18:09:39;26.47;;;23.70;;
31061;SDS011;17724;53.546;9.974;2022-09-24T18:13:40;23.63;;;20.60;;
31061;SDS011;17724;53.546;9.974;2022-09-24T18:17:40;27.00;;;22.63;;
31061;SDS011;17724;53.546;9.974;2022-09-24T18:21:41;25.60;;;21.60;;
31061;SDS011;17724;53.546;9.974;2022-09-24T18:25:42;25.80;;;20.87;;
31061;SDS011;17724;53.546;9.974;2022-09-24T18:29:42;35.40;;;27.53;;
31061;SDS011;17724;53.546;9.974;2022-09-24T18:33:44;23.63;;;20.87;;
31061;SDS011;17724;53.546;9.974;2022-09-24T18:37:46;25.03;;;21.73;;
31061;SDS011;17724;53.546;9.974;2022-09-24T18:41:46;25.43;;;22.10;;
31061;SDS011;17724;53.546;9.974;2022-09-24T18:45:47;27.47;;;21.53;;
31061;SDS011;17724;53.546;9.974;2022-09-24T18:49:47;29.50;;;26.20;;
31061;SDS011;17724;53.546;9.974;2022-09-24T18:53:52;30.07;;;26.07;;
31061;SDS011;17724;53.546;9.974;2022-09-24T18:57:54;26.07;;;22.50;;
31061;SDS011;17724;53.546;9.974;2022-09-24T19:01:54;22.53;;;19.07;;
31061;SDS011;17724;53.546;9.974;2022-09-24T19:05:58;20.60;;;18.40;;
31061;SDS011;17724;53.546;9.974;2022-09-24T19:10:01;21.17;;;18.47;;
31061;SDS011;17724;53.546;9.974;2022-09-24T19:14:01;21.73;;;18.70;;
31061;SDS011;17724;53.546;9.974;2022-09-24T19:18:02;24.67;;;18.37;;
31061;SDS011;17724;53.546;9.974;2022-09-24T19:22:02;21.57;;;18.10;;
31061;SDS011;17724;53.546;9.974;2022-09-24T19:26:03;26.80;;;21.57;;
31061;SDS011;17724;53.546;9.974;2022-09-24T19:30:05;22.73;;;18.10;;
31061;SDS011;17724;53.546;9.974;2022-09-24T19:34:06;24.57;;;20.50;;
31061;SDS011;17724;53.546;9.974;2022-09-24T19:38:07;20.93;;;17.60;;
31061;SDS011;17724;53.546;9.974;2022-09-24T19:42:08;20.90;;;16.87;;
31061;SDS011;17724;53.546;9.974;2022-09-24T19:46:09;22.60;;;20.10;;
31061;SDS011;17724;53.546;9.974;2022-09-24T19:50:11;20.43;;;17.27;;
31061;SDS011;17724;53.546;9.974;2022-09-24T19:54:15;21.27;;;18.13;;
31061;SDS011;17724;53.546;9.974;2022-09-24T19:58:15;22.17;;;17.13;;
31061;SDS011;17724;53.546;9.974;2022-09-24T20:02:18;21.00;;;17.13;;
31061;SDS011;17724;53.546;9.974;2022-09-24T20:06:23;21.40;;;19.17;;
31061;SDS011;17724;53.546;9.974;2022-09-24T20:10:25;22.93;;;19.30;;
31061;SDS011;17724;53.546;9.974;2022-09-24T20:14:25;23.30;;;18.70;;
31061;SDS011;17724;53.546;9.974;2022-09-24T20:18:26;20.90;;;18.40;;
31061;SDS011;17724;53.546;9.974;2022-09-24T20:22:26;21.40;;;18.07;;
31061;SDS011;17724;53.546;9.974;2022-09-24T20:26:27;23.73;;;20.50;;
31061;SDS011;17724;53.546;9.974;2022-09-24T20:30:46;28.17;;;22.27;;
31061;SDS011;17724;53.546;9.974;2022-09-24T20:34:46;24.60;;;20.57;;
31061;SDS011;17724;53.546;9.974;2022-09-24T20:38:47;24.90;;;21.37;;
31061;SDS011;17724;53.546;9.974;2022-09-24T20:42:47;23.63;;;20.33;;
31061;SDS011;17724;53.546;9.974;2022-09-24T20:46:48;23.97;;;21.23;;
31061;SDS011;17724;53.546;9.974;2022-09-24T20:50:48;24.07;;;21.20;;
31061;SDS011;17724;53.546;9.974;2022-09-24T20:54:49;26.33;;;19.60;;
31061;SDS011;17724;53.546;9.974;2022-09-24T20:58:50;22.73;;;18.87;;
31061;SDS011;17724;53.546;9.974;2022-09-24T21:02:52;25.47;;;22.70;;
31061;SDS011;17724;53.546;9.974;2022-09-24T21:06:52;29.50;;;23.23;;
31061;SDS011;17724;53.546;9.974;2022-09-24T21:10:58;24.07;;;20.80;;
31061;SDS011;17724;53.546;9.974;2022-09-24T21:15:00;24.83;;;20.37;;
31061;SDS011;17724;53.546;9.974;2022-09-24T21:19:02;21.47;;;18.07;;
31061;SDS011;17724;53.546;9.974;2022-09-24T21:23:07;25.80;;;21.13;;
31061;SDS011;17724;53.546;9.974;2022-09-24T21:27:07;25.23;;;20.43;;
31061;SDS011;17724;53.546;9.974;2022-09-24T21:31:07;23.07;;;19.50;;
31061;SDS011;17724;53.546;9.974;2022-09-24T21:35:08;23.33;;;19.37;;
31061;SDS011;17724;53.546;9.974;2022-09-24T21:39:13;26.40;;;19.47;;
31061;SDS011;17724;53.546;9.974;2022-09-24T21:43:14;25.87;;;21.23;;
31061;SDS011;17724;53.546;9.974;2022-09-24T21:47:14;23.90;;;19.13;;
31061;SDS011;17724;53.546;9.974;2022-09-24T21:51:14;22.70;;;18.83;;
31061;SDS011;17724;53.546;9.974;2022-09-24T21:55:21;23.10;;;18.40;;
31061;SDS011;17724;53.546;9.974;2022-09-24T21:59:21;25.53;;;18.93;;
31061;SDS011;17724;53.546;9.974;2022-09-24T22:03:40;22.90;;;17.40;;
31061;SDS011;17724;53.546;9.974;2022-09-24T22:07:41;22.67;;;19.17;;
31061;SDS011;17724;53.546;9.974;2022-09-24T22:11:41;22.10;;;16.90;;
31061;SDS011;17724;53.546;9.974;2022-09-24T22:15:44;21.73;;;16.27;;
31061;SDS011;17724;53.546;9.974;2022-09-24T22:19:45;21.30;;;16.33;;
31061;SDS011;17724;53.546;9.974;2022-09-24T22:23:45;21.10;;;16.50;;
31061;SDS011;17724;53.546;9.974;2022-09-24T22:27:45;21.30;;;16.40;;
31061;SDS011;17724;53.546;9.974;2022-09-24T22:31:46;21.00;;;16.57;;
31061;SDS011;17724;53.546;9.974;2022-09-24T22:35:46;21.10;;;15.80;;
31061;SDS011;17724;53.546;9.974;2022-09-24T22:39:48;20.20;;;16.10;;
31061;SDS011;17724;53.546;9.974;2022-09-24T22:43:49;23.53;;;17.87;;
31061;SDS011;17724;53.546;9.974;2022-09-24T22:47:50;26.07;;;19.10;;
31061;SDS011;17724;53.546;9.974;2022-09-24T22:51:51;22.30;;;16.10;;
31061;SDS011;17724;53.546;9.974;2022-09-24T22:56:08;21.63;;;16.43;;
31061;SDS011;17724;53.546;9.974;2022-09-24T23:00:13;21.83;;;16.57;;
31061;SDS011;17724;53.546;9.974;2022-09-24T23:04:15;25.43;;;19.40;;
31061;SDS011;17724;53.546;9.974;2022-09-24T23:08:15;23.00;;;17.00;;
31061;SDS011;17724;53.546;9.974;2022-09-24T23:12:16;21.57;;;17.53;;
31061;SDS011;17724;53.546;9.974;2022-09-24T23:16:17;23.17;;;17.57;;
31061;SDS011;17724;53.546;9.974;2022-09-24T23:20:20;22.33;;;17.70;;
31061;SDS011;17724;53.546;9.974;2022-09-24T23:24:21;26.07;;;18.60;;
31061;SDS011;17724;53.546;9.974;2022-09-24T23:28:23;26.07;;;20.13;;
31061;SDS011;17724;53.546;9.974;2022-09-24T23:32:23;22.53;;;16.80;;
31061;SDS011;17724;53.546;9.974;2022-09-24T23:36:24;24.63;;;18.00;;
31061;SDS011;17724;53.546;9.974;2022-09-24T23:40:25;23.87;;;16.67;;
31061;SDS011;17724;53.546;9.974;2022-09-24T23:44:28;20.00;;;14.57;;
31061;SDS011;17724;53.546;9.974;2022-09-24T23:48:28;21.67;;;15.87;;
31061;SDS011;17724;53.546;9.974;2022-09-24T23:52:31;21.17;;;15.43;;
31061;SDS011;17724;53.546;9.974;2022-09-24T23:56:32;20.13;;;13.87;;
